createdAt,value
2023-04-29T00:00:18.963Z,42.60
2023-04-29T00:01:23.448Z,42.62
2023-04-29T00:02:30.467Z,42.63
2023-04-29T00:03:33.708Z,42.64
2023-04-29T00:04:37.768Z,42.65
2023-04-29T00:05:42.152Z,42.66
2023-04-29T00:06:46.519Z,43.04
2023-04-29T00:07:49.820Z,43.04
2023-04-29T00:08:53.831Z,42.71
2023-04-29T00:09:57.282Z,42.74
2023-04-29T00:11:01.206Z,42.74
2023-04-29T00:12:04.380Z,42.75
2023-04-29T00:13:08.611Z,42.77
2023-04-29T00:14:11.828Z,42.76
2023-04-29T00:15:20.945Z,42.81
2023-04-29T00:16:24.370Z,42.83
2023-04-29T00:17:27.491Z,42.85
2023-04-29T00:18:30.818Z,42.84
2023-04-29T00:19:33.662Z,42.85
2023-04-29T00:20:39.699Z,42.88
2023-04-29T00:21:43.718Z,42.91
2023-04-29T00:22:47.404Z,42.94
2023-04-29T00:23:50.744Z,42.97
2023-04-29T00:24:56.344Z,42.96
2023-04-29T00:25:59.545Z,42.98
2023-04-29T00:27:03.397Z,43.00
2023-04-29T00:28:06.557Z,43.04
2023-04-29T00:29:10.033Z,43.06
2023-04-29T00:30:13.372Z,43.09
2023-04-29T00:31:17.021Z,43.09
2023-04-29T00:32:20.144Z,43.14
2023-04-29T00:33:24.331Z,43.10
2023-04-29T00:34:27.320Z,43.15
2023-04-29T00:35:32.179Z,43.14
2023-04-29T00:36:35.576Z,43.14
2023-04-29T00:37:39.314Z,43.16
2023-04-29T00:38:43.035Z,43.17
2023-04-29T00:39:46.429Z,43.18
2023-04-29T00:40:50.895Z,43.21
2023-04-29T00:41:54.402Z,43.24
2023-04-29T00:42:59.048Z,43.26
2023-04-29T00:44:02.850Z,43.27
2023-04-29T00:45:08.308Z,43.28
2023-04-29T00:46:13.261Z,43.33
2023-04-29T00:47:16.985Z,43.34
2023-04-29T00:48:21.486Z,43.40
2023-04-29T00:49:25.631Z,43.39
2023-04-29T00:50:28.887Z,43.43
2023-04-29T00:51:33.735Z,43.46
2023-04-29T00:52:37.688Z,43.45
2023-04-29T00:53:41.512Z,43.45
2023-04-29T00:54:45.287Z,43.46
2023-04-29T00:55:50.620Z,43.48
2023-04-29T00:56:54.703Z,43.47
2023-04-29T00:57:57.880Z,43.46
2023-04-29T00:59:04.129Z,43.45
2023-04-29T01:00:09.542Z,43.51
2023-04-29T01:01:12.565Z,43.52
2023-04-29T01:02:15.885Z,43.51
2023-04-29T01:03:20.617Z,43.52
2023-04-29T01:04:23.841Z,43.53
2023-04-29T01:05:27.240Z,43.56
2023-04-29T01:06:51.900Z,43.60
2023-04-29T01:07:59.274Z,43.61
2023-04-29T01:09:36.221Z,43.58
2023-04-29T01:12:43.145Z,43.67
2023-04-29T01:13:53.946Z,43.59
2023-04-29T01:15:09.486Z,43.59
2023-04-29T01:16:42.188Z,43.66
2023-04-29T01:18:08.058Z,43.68
2023-04-29T01:19:17.393Z,43.74
2023-04-29T01:20:20.572Z,43.75
2023-04-29T01:21:24.762Z,43.74
2023-04-29T01:22:29.123Z,43.77
2023-04-29T01:23:32.448Z,43.80
2023-04-29T01:24:36.406Z,43.85
2023-04-29T01:25:40.342Z,43.86
2023-04-29T01:26:47.955Z,43.85
2023-04-29T01:28:15.020Z,43.85
2023-04-29T01:29:34.136Z,43.86
2023-04-29T01:31:02.288Z,43.85
2023-04-29T01:32:11.068Z,43.86
2023-04-29T01:33:24.877Z,43.85
2023-04-29T01:34:31.868Z,43.88
2023-04-29T01:37:07.069Z,44.05
2023-04-29T01:38:30.452Z,44.04
2023-04-29T01:39:38.138Z,44.05
2023-04-29T01:42:10.325Z,44.11
2023-04-29T01:43:13.427Z,44.05
2023-04-29T01:44:23.494Z,44.09
2023-04-29T01:45:26.893Z,44.09
2023-04-29T01:46:30.107Z,44.10
2023-04-29T01:47:35.014Z,44.11
2023-04-29T01:48:38.460Z,44.14
2023-04-29T01:49:42.403Z,44.09
2023-04-29T01:50:45.495Z,44.09
2023-04-29T01:53:02.490Z,44.11
2023-04-29T01:55:20.502Z,44.14
2023-04-29T01:56:25.796Z,44.09
2023-04-29T01:57:37.716Z,44.10
2023-04-29T01:58:51.706Z,44.10
2023-04-29T01:59:57.112Z,44.09
2023-04-29T02:01:22.762Z,44.08
2023-04-29T02:02:27.219Z,44.09
2023-04-29T02:03:32.183Z,44.09
2023-04-29T02:04:37.432Z,44.10
2023-04-29T02:05:41.408Z,44.09
2023-04-29T02:06:44.650Z,44.12
2023-04-29T02:07:48.758Z,44.12
2023-04-29T02:08:53.297Z,44.12
2023-04-29T02:09:57.178Z,44.13
2023-04-29T02:11:00.577Z,44.57
2023-04-29T02:12:12.060Z,44.57
2023-04-29T02:13:15.990Z,44.13
2023-04-29T02:15:32.267Z,44.32
2023-04-29T02:16:35.695Z,44.31
2023-04-29T02:17:41.022Z,44.31
2023-04-29T02:18:44.042Z,44.29
2023-04-29T02:19:47.238Z,44.26
2023-04-29T02:20:51.803Z,44.26
2023-04-29T02:21:55.106Z,44.25
2023-04-29T02:22:57.810Z,44.24
2023-04-29T02:24:01.018Z,44.24
2023-04-29T02:25:06.387Z,44.28
2023-04-29T02:26:11.211Z,44.26
2023-04-29T02:27:14.618Z,44.36
2023-04-29T02:28:19.015Z,44.35
2023-04-29T02:29:22.213Z,44.34
2023-04-29T02:30:25.434Z,44.35
2023-04-29T02:31:28.649Z,44.38
2023-04-29T02:32:32.675Z,44.37
2023-04-29T02:34:48.832Z,44.47
2023-04-29T02:35:53.036Z,44.44
2023-04-29T02:36:56.249Z,44.43
2023-04-29T02:37:59.952Z,44.45
2023-04-29T02:39:03.127Z,44.45
2023-04-29T02:40:08.573Z,44.49
2023-04-29T02:42:30.064Z,44.49
2023-04-29T02:43:33.018Z,44.43
2023-04-29T02:44:38.221Z,44.46
2023-04-29T02:45:41.478Z,44.46
2023-04-29T02:46:44.874Z,44.46
2023-04-29T02:47:47.923Z,44.48
2023-04-29T02:48:51.105Z,44.52
2023-04-29T02:49:55.260Z,44.53
2023-04-29T02:50:58.144Z,44.53
2023-04-29T02:52:01.849Z,44.58
2023-04-29T02:53:05.599Z,44.62
2023-04-29T02:54:08.904Z,44.48
2023-04-29T02:55:11.711Z,44.63
2023-04-29T02:56:15.791Z,44.60
2023-04-29T02:57:18.716Z,44.57
2023-04-29T02:58:23.396Z,44.57
2023-04-29T03:00:40.245Z,44.65
2023-04-29T03:01:43.921Z,44.60
2023-04-29T03:02:48.044Z,44.58
2023-04-29T03:03:52.599Z,44.59
2023-04-29T03:04:55.908Z,44.59
2023-04-29T03:05:58.859Z,44.58
2023-04-29T03:07:02.723Z,44.55
2023-04-29T03:08:06.131Z,44.57
2023-04-29T03:09:10.425Z,44.54
2023-04-29T03:10:15.562Z,44.57
2023-04-29T03:11:20.008Z,44.55
2023-04-29T03:12:23.229Z,44.53
2023-04-29T03:13:26.031Z,44.55
2023-04-29T03:14:29.079Z,44.57
2023-04-29T03:15:31.866Z,44.57
2023-04-29T03:16:35.533Z,44.59
2023-04-29T03:17:39.873Z,44.57
2023-04-29T03:18:43.482Z,44.61
2023-04-29T03:19:46.192Z,44.59
2023-04-29T03:20:50.201Z,44.61
2023-04-29T03:21:54.011Z,44.65
2023-04-29T03:22:59.368Z,44.64
2023-04-29T03:24:02.720Z,44.64
2023-04-29T03:25:09.905Z,44.64
2023-04-29T03:26:14.093Z,44.65
2023-04-29T03:27:17.841Z,44.65
2023-04-29T03:28:22.091Z,44.63
2023-04-29T03:29:26.297Z,44.66
2023-04-29T03:30:30.553Z,44.66
2023-04-29T03:31:34.471Z,44.70
2023-04-29T03:32:40.190Z,44.72
2023-04-29T03:33:44.777Z,44.71
2023-04-29T03:34:49.975Z,44.73
2023-04-29T03:36:00.888Z,44.71
2023-04-29T03:37:18.745Z,44.71
2023-04-29T03:38:25.374Z,44.68
2023-04-29T03:40:44.830Z,44.73
2023-04-29T03:41:48.268Z,44.74
2023-04-29T03:42:52.379Z,44.73
2023-04-29T03:43:57.246Z,44.77
2023-04-29T03:45:01.480Z,44.77
2023-04-29T03:46:06.509Z,44.76
2023-04-29T03:47:10.947Z,44.75
2023-04-29T03:48:14.320Z,44.78
2023-04-29T03:49:18.317Z,44.76
2023-04-29T03:50:23.346Z,44.76
2023-04-29T03:51:28.568Z,44.75
2023-04-29T03:52:35.345Z,44.73
2023-04-29T03:53:41.383Z,44.76
2023-04-29T03:54:45.652Z,44.77
2023-04-29T03:55:49.179Z,44.82
2023-04-29T03:56:54.278Z,44.86
2023-04-29T03:57:58.462Z,44.86
2023-04-29T03:59:01.770Z,44.88
2023-04-29T04:00:07.391Z,44.89
2023-04-29T04:01:21.204Z,44.95
2023-04-29T04:02:25.124Z,44.87
2023-04-29T04:03:28.742Z,44.92
2023-04-29T04:04:33.696Z,44.95
2023-04-29T04:05:37.643Z,44.94
2023-04-29T04:06:43.360Z,44.96
2023-04-29T04:07:47.367Z,44.99
2023-04-29T04:09:08.943Z,45.01
2023-04-29T04:10:13.522Z,45.02
2023-04-29T04:11:16.823Z,45.08
2023-04-29T04:12:28.047Z,45.09
2023-04-29T04:13:31.867Z,45.18
2023-04-29T04:14:35.578Z,45.18
2023-04-29T04:15:38.801Z,45.18
2023-04-29T04:16:42.264Z,45.19
2023-04-29T04:17:45.466Z,45.21
2023-04-29T04:18:48.509Z,45.25
2023-04-29T04:19:51.846Z,45.24
2023-04-29T04:20:55.454Z,45.31
2023-04-29T04:22:04.306Z,45.32
2023-04-29T04:23:08.571Z,45.30
2023-04-29T04:24:11.805Z,45.40
2023-04-29T04:25:14.904Z,45.33
2023-04-29T04:26:18.468Z,45.32
2023-04-29T04:27:33.961Z,45.30
2023-04-29T04:28:39.192Z,45.33
2023-04-29T04:29:43.810Z,45.41
2023-04-29T04:32:02.933Z,45.53
2023-04-29T04:33:06.333Z,45.44
2023-04-29T04:34:10.808Z,45.50
2023-04-29T04:35:15.347Z,45.49
2023-04-29T04:36:20.043Z,45.54
2023-04-29T04:37:24.376Z,45.54
2023-04-29T04:38:28.956Z,45.58
2023-04-29T04:39:32.009Z,45.57
2023-04-29T04:40:35.873Z,45.56
2023-04-29T04:41:47.132Z,45.58
2023-04-29T04:42:50.522Z,45.57
2023-04-29T04:43:54.822Z,45.52
2023-04-29T04:45:10.907Z,45.53
2023-04-29T04:46:17.161Z,45.57
2023-04-29T04:47:31.268Z,45.73
2023-04-29T04:49:52.284Z,46.06
2023-04-29T04:52:09.846Z,46.37
2023-04-29T04:53:12.858Z,46.32
2023-04-29T04:54:17.210Z,46.44
2023-04-29T04:55:22.416Z,46.42
2023-04-29T04:56:26.358Z,46.54
2023-04-29T04:57:29.154Z,46.55
2023-04-29T04:58:33.110Z,46.61
2023-04-29T04:59:35.782Z,46.66
2023-04-29T05:01:52.737Z,46.86
2023-04-29T05:02:56.270Z,46.77
2023-04-29T05:04:00.529Z,46.76
2023-04-29T05:05:06.038Z,46.64
2023-04-29T05:06:10.926Z,46.54
2023-04-29T05:07:16.029Z,47.94
2023-04-29T05:08:20.818Z,48.07
2023-04-29T05:09:24.273Z,47.90
2023-04-29T05:10:27.496Z,48.04
2023-04-29T05:11:31.871Z,48.15
2023-04-29T05:12:37.518Z,48.23
2023-04-29T05:13:41.277Z,48.28
2023-04-29T05:14:44.381Z,48.37
2023-04-29T05:15:47.847Z,48.28
2023-04-29T05:16:53.681Z,48.46
2023-04-29T05:17:56.553Z,48.38
2023-04-29T05:19:00.025Z,48.36
2023-04-29T05:21:19.747Z,48.57
2023-04-29T05:22:24.628Z,48.48
2023-04-29T05:23:27.634Z,48.41
2023-04-29T05:24:30.388Z,48.38
2023-04-29T05:25:33.301Z,48.43
2023-04-29T05:26:37.302Z,48.38
2023-04-29T05:27:43.761Z,48.43
2023-04-29T05:28:48.871Z,48.43
2023-04-29T05:29:54.034Z,48.37
2023-04-29T05:30:57.163Z,48.30
2023-04-29T05:32:00.260Z,48.31
2023-04-29T05:33:03.200Z,48.32
2023-04-29T05:34:06.907Z,48.25
2023-04-29T05:35:09.770Z,48.18
2023-04-29T05:36:14.124Z,48.17
2023-04-29T05:37:17.627Z,48.16
2023-04-29T05:38:26.872Z,48.17
2023-04-29T05:39:32.027Z,48.10
2023-04-29T05:40:37.569Z,48.01
2023-04-29T05:42:00.455Z,47.98
2023-04-29T05:43:05.222Z,47.87
2023-04-29T05:44:08.415Z,47.76
2023-04-29T05:45:12.215Z,47.69
2023-04-29T05:46:16.789Z,47.64
2023-04-29T05:47:21.719Z,47.58
2023-04-29T05:48:25.638Z,47.55
2023-04-29T05:49:28.502Z,47.48
2023-04-29T05:50:32.340Z,47.40
2023-04-29T05:51:35.198Z,47.34
2023-04-29T05:52:40.102Z,47.33
2023-04-29T05:53:42.952Z,47.24
2023-04-29T05:54:46.922Z,47.23
2023-04-29T05:55:51.203Z,47.21
2023-04-29T05:56:55.913Z,47.14
2023-04-29T05:57:58.645Z,47.19
2023-04-29T05:59:02.673Z,47.21
2023-04-29T06:00:07.053Z,47.16
2023-04-29T06:01:12.622Z,47.10
2023-04-29T06:02:16.523Z,47.10
2023-04-29T06:03:20.722Z,47.05
2023-04-29T06:04:26.495Z,46.99
2023-04-29T06:05:39.332Z,46.92
2023-04-29T06:08:13.254Z,46.84
2023-04-29T06:09:27.430Z,46.90
2023-04-29T06:10:26.741Z,46.94
2023-04-29T06:11:29.577Z,46.87
2023-04-29T06:12:32.854Z,46.83
2023-04-29T06:13:36.699Z,46.75
2023-04-29T06:14:40.993Z,46.67
2023-04-29T06:15:45.982Z,46.59
2023-04-29T06:16:50.511Z,46.60
2023-04-29T06:19:06.080Z,46.47
2023-04-29T06:20:12.541Z,46.51
2023-04-29T06:21:15.700Z,46.55
2023-04-29T06:22:20.002Z,46.58
2023-04-29T06:23:24.957Z,46.59
2023-04-29T06:24:28.210Z,46.63
2023-04-29T06:25:32.771Z,46.66
2023-04-29T06:27:50.004Z,46.77
2023-04-29T06:28:54.612Z,46.75
2023-04-29T06:29:58.386Z,46.76
2023-04-29T06:31:01.786Z,46.75
2023-04-29T06:32:04.766Z,46.75
2023-04-29T06:33:09.616Z,46.74
2023-04-29T06:34:15.026Z,46.74
2023-04-29T06:35:21.872Z,46.71
2023-04-29T06:36:43.646Z,46.72
2023-04-29T06:37:56.050Z,46.67
2023-04-29T06:39:04.051Z,46.67
2023-04-29T06:40:14.462Z,46.69
2023-04-29T06:41:37.482Z,46.74
2023-04-29T06:42:45.075Z,46.74
2023-04-29T06:45:04.910Z,46.82
2023-04-29T06:46:13.836Z,46.84
2023-04-29T06:47:19.623Z,46.82
2023-04-29T06:48:27.978Z,46.83
2023-04-29T06:49:31.152Z,46.84
2023-04-29T06:50:35.887Z,46.83
2023-04-29T06:51:39.074Z,46.86
2023-04-29T06:52:42.370Z,46.85
2023-04-29T06:53:47.641Z,46.84
2023-04-29T06:54:56.375Z,46.88
2023-04-29T06:55:59.255Z,46.87
2023-04-29T06:57:05.127Z,46.88
2023-04-29T06:58:08.210Z,46.88
2023-04-29T07:00:25.302Z,46.92
2023-04-29T07:01:30.964Z,46.88
2023-04-29T07:02:34.389Z,46.88
2023-04-29T07:03:38.836Z,46.89
2023-04-29T07:04:43.514Z,46.89
2023-04-29T07:05:46.303Z,46.95
2023-04-29T07:06:51.599Z,46.99
2023-04-29T07:07:54.729Z,47.02
2023-04-29T07:08:58.676Z,47.02
2023-04-29T07:10:01.745Z,47.01
2023-04-29T07:11:05.655Z,47.04
2023-04-29T07:12:08.694Z,47.11
2023-04-29T07:13:11.635Z,47.06
2023-04-29T07:14:17.070Z,47.08
2023-04-29T07:15:19.965Z,47.11
2023-04-29T07:16:25.732Z,47.12
2023-04-29T07:17:31.856Z,47.11
2023-04-29T07:18:35.433Z,47.12
2023-04-29T07:19:38.552Z,47.13
2023-04-29T07:20:44.166Z,47.18
2023-04-29T07:21:47.095Z,47.17
2023-04-29T07:22:50.536Z,47.21
2023-04-29T07:23:54.867Z,47.22
2023-04-29T07:24:58.545Z,47.21
2023-04-29T07:26:13.015Z,47.23
2023-04-29T07:27:16.634Z,47.24
2023-04-29T07:28:19.404Z,47.13
2023-04-29T07:29:22.086Z,47.13
2023-04-29T07:31:38.580Z,47.41
2023-04-29T07:32:41.570Z,47.35
2023-04-29T07:33:49.284Z,47.36
2023-04-29T07:34:54.805Z,47.39
2023-04-29T07:35:58.303Z,47.41
2023-04-29T07:37:04.100Z,47.41
2023-04-29T07:38:07.171Z,47.45
2023-04-29T07:39:11.772Z,47.47
2023-04-29T07:40:16.087Z,47.46
2023-04-29T07:41:19.120Z,47.46
2023-04-29T07:42:24.501Z,47.54
2023-04-29T07:43:28.595Z,47.54
2023-04-29T07:44:31.230Z,47.58
2023-04-29T07:45:34.426Z,47.60
2023-04-29T07:46:37.503Z,47.68
2023-04-29T07:47:40.648Z,47.70
2023-04-29T07:48:45.564Z,47.66
2023-04-29T07:49:48.342Z,47.68
2023-04-29T07:50:51.645Z,47.67
2023-04-29T07:51:55.390Z,47.71
2023-04-29T07:53:01.222Z,47.70
2023-04-29T07:54:05.242Z,47.74
2023-04-29T07:55:09.243Z,47.70
2023-04-29T07:56:13.150Z,47.68
2023-04-29T07:57:17.941Z,47.68
2023-04-29T07:58:21.587Z,47.69
2023-04-29T07:59:26.011Z,47.65
2023-04-29T08:00:30.863Z,47.64
2023-04-29T08:01:36.506Z,47.64
2023-04-29T08:02:39.663Z,47.64
2023-04-29T08:04:55.916Z,47.69
2023-04-29T08:06:03.681Z,47.61
2023-04-29T08:07:07.461Z,47.62
2023-04-29T08:08:15.049Z,47.62
2023-04-29T08:09:18.960Z,47.56
2023-04-29T08:10:23.067Z,47.57
2023-04-29T08:11:26.956Z,47.58
2023-04-29T08:12:32.592Z,47.62
2023-04-29T08:13:36.822Z,47.57
2023-04-29T08:14:40.802Z,47.57
2023-04-29T08:15:43.759Z,47.70
2023-04-29T08:16:48.010Z,47.70
2023-04-29T08:17:51.615Z,47.61
2023-04-29T08:18:55.631Z,47.39
2023-04-29T08:19:59.301Z,46.17
2023-04-29T08:21:03.119Z,46.67
2023-04-29T08:22:05.913Z,46.60
2023-04-29T08:23:09.614Z,46.42
2023-04-29T08:24:13.055Z,46.18
2023-04-29T08:25:16.293Z,45.91
2023-04-29T08:26:19.417Z,45.53
2023-04-29T08:27:23.521Z,45.32
2023-04-29T08:28:28.477Z,45.17
2023-04-29T08:29:34.257Z,44.57
2023-04-29T08:30:39.162Z,43.97
2023-04-29T08:31:42.158Z,43.86
2023-04-29T08:32:45.671Z,44.14
2023-04-29T08:33:49.075Z,44.19
2023-04-29T08:34:52.964Z,43.75
2023-04-29T08:36:00.292Z,42.98
2023-04-29T08:37:02.996Z,39.86
2023-04-29T08:38:07.159Z,41.05
2023-04-29T08:39:10.196Z,40.11
2023-04-29T08:40:13.938Z,39.83
2023-04-29T08:41:17.012Z,39.72
2023-04-29T08:42:24.086Z,41.30
2023-04-29T08:43:29.694Z,41.55
2023-04-29T08:44:34.107Z,42.12
2023-04-29T08:45:36.907Z,42.44
2023-04-29T08:46:41.582Z,42.73
2023-04-29T08:47:44.308Z,41.17
2023-04-29T08:48:47.755Z,42.21
2023-04-29T08:51:03.956Z,42.68
2023-04-29T08:52:06.770Z,42.66
2023-04-29T08:54:23.215Z,43.05
2023-04-29T08:55:26.062Z,43.03
2023-04-29T08:56:29.368Z,40.74
2023-04-29T08:57:36.519Z,41.75
2023-04-29T08:58:39.537Z,41.88
2023-04-29T08:59:43.622Z,41.87
2023-04-29T09:00:46.554Z,42.23
2023-04-29T09:01:51.260Z,41.20
2023-04-29T09:02:54.916Z,41.54
2023-04-29T09:04:34.853Z,41.98
2023-04-29T09:05:39.004Z,42.16
2023-04-29T09:06:41.746Z,42.06
2023-04-29T09:07:44.382Z,42.34
2023-04-29T09:08:47.218Z,42.44
2023-04-29T09:09:52.627Z,41.69
2023-04-29T09:10:56.718Z,42.53
2023-04-29T09:11:59.495Z,43.26
2023-04-29T09:13:03.062Z,43.51
2023-04-29T09:14:07.115Z,43.73
2023-04-29T09:15:10.656Z,42.83
2023-04-29T09:16:13.471Z,43.27
2023-04-29T09:17:18.053Z,43.62
2023-04-29T09:18:46.579Z,44.18
2023-04-29T09:19:50.763Z,43.52
2023-04-29T09:20:54.150Z,42.62
2023-04-29T09:21:58.073Z,41.78
2023-04-29T09:23:05.813Z,43.16
2023-04-29T09:24:09.955Z,43.28
2023-04-29T09:25:13.316Z,43.45
2023-04-29T09:26:16.407Z,43.58
2023-04-29T09:27:28.774Z,41.51
2023-04-29T09:28:31.444Z,41.39
2023-04-29T09:29:37.012Z,42.07
2023-04-29T09:30:48.781Z,42.70
2023-04-29T09:31:57.554Z,43.67
2023-04-29T09:35:46.951Z,43.87
2023-04-29T09:36:51.797Z,43.18
2023-04-29T09:39:13.769Z,42.25
2023-04-29T09:40:40.464Z,44.10
2023-04-29T09:41:55.615Z,44.13
2023-04-29T09:42:58.911Z,43.68
2023-04-29T09:44:05.300Z,43.74
2023-04-29T09:45:09.907Z,43.37
2023-04-29T09:46:14.132Z,43.41
2023-04-29T09:47:17.431Z,42.83
2023-04-29T09:48:20.463Z,42.47
2023-04-29T09:49:28.540Z,42.82
2023-04-29T09:50:33.254Z,41.55
2023-04-29T09:51:41.721Z,42.26
2023-04-29T09:52:46.025Z,42.28
2023-04-29T09:53:48.754Z,42.31
2023-04-29T09:54:52.176Z,42.43
2023-04-29T09:56:03.420Z,42.19
2023-04-29T09:57:08.010Z,42.37
2023-04-29T09:58:15.054Z,42.40
2023-04-29T09:59:21.222Z,42.38
2023-04-29T10:00:24.923Z,42.34
2023-04-29T10:01:28.055Z,42.42
2023-04-29T10:02:31.733Z,42.42
2023-04-29T10:03:39.848Z,42.03
2023-04-29T10:04:45.237Z,41.98
2023-04-29T10:05:48.068Z,40.33
2023-04-29T10:08:06.654Z,38.65
2023-04-29T10:09:16.609Z,39.71
2023-04-29T10:10:20.333Z,40.15
2023-04-29T10:11:23.413Z,40.30
2023-04-29T10:12:27.018Z,40.31
2023-04-29T10:13:31.659Z,40.40
2023-04-29T10:14:38.060Z,40.43
2023-04-29T10:15:47.640Z,40.29
2023-04-29T10:17:08.002Z,40.47
2023-04-29T10:18:22.036Z,40.40
2023-04-29T10:19:27.624Z,40.34
2023-04-29T10:20:31.916Z,39.80
2023-04-29T10:21:34.602Z,39.83
2023-04-29T10:22:48.148Z,39.77
2023-04-29T10:23:52.729Z,39.42
2023-04-29T10:24:55.637Z,39.08
2023-04-29T10:26:01.075Z,39.20
2023-04-29T10:27:05.904Z,39.03
2023-04-29T10:29:27.992Z,38.62
2023-04-29T10:30:31.556Z,38.67
2023-04-29T10:31:34.175Z,38.67
2023-04-29T10:33:45.667Z,38.11
2023-04-29T10:34:49.116Z,38.48
2023-04-29T10:35:53.865Z,38.52
2023-04-29T10:36:57.369Z,36.85
2023-04-29T10:38:00.356Z,36.60
2023-04-29T10:39:04.914Z,37.11
2023-04-29T10:40:17.873Z,37.03
2023-04-29T10:41:26.217Z,37.28
2023-04-29T10:42:50.275Z,36.38
2023-04-29T10:43:54.657Z,37.27
2023-04-29T10:45:20.839Z,37.41
2023-04-29T10:46:26.315Z,37.41
2023-04-29T10:47:29.643Z,37.18
2023-04-29T10:48:33.092Z,37.51
2023-04-29T10:49:38.864Z,37.87
2023-04-29T10:50:48.158Z,37.25
2023-04-29T10:51:50.980Z,37.36
2023-04-29T10:52:58.316Z,37.43
2023-04-29T10:54:08.909Z,37.37
2023-04-29T10:55:13.022Z,37.49
2023-04-29T10:56:16.414Z,37.41
2023-04-29T10:57:22.109Z,37.42
2023-04-29T10:58:43.440Z,37.54
2023-04-29T10:59:47.830Z,37.64
2023-04-29T11:00:50.879Z,37.39
2023-04-29T11:01:54.726Z,37.58
2023-04-29T11:02:58.767Z,37.86
2023-04-29T11:04:03.751Z,37.96
2023-04-29T11:05:10.926Z,38.00
2023-04-29T11:06:15.022Z,38.03
2023-04-29T11:07:30.356Z,37.97
2023-04-29T11:09:46.472Z,37.63
2023-04-29T11:10:54.399Z,37.68
2023-04-29T11:12:03.478Z,38.05
2023-04-29T11:13:26.360Z,38.13
2023-04-29T11:14:36.917Z,38.02
2023-04-29T11:15:41.420Z,37.27
2023-04-29T11:18:11.694Z,37.94
2023-04-29T11:19:17.278Z,37.91
2023-04-29T11:20:21.068Z,37.87
2023-04-29T11:21:23.990Z,38.14
2023-04-29T11:22:30.637Z,38.01
2023-04-29T11:26:21.987Z,37.58
2023-04-29T11:27:27.155Z,37.51
2023-04-29T11:28:32.083Z,37.29
2023-04-29T11:29:35.927Z,37.14
2023-04-29T11:30:40.293Z,37.37
2023-04-29T11:31:43.518Z,37.36
2023-04-29T11:32:57.064Z,37.37
2023-04-29T11:34:00.557Z,37.21
2023-04-29T11:35:16.003Z,37.29
2023-04-29T11:36:20.174Z,36.77
2023-04-29T11:37:24.530Z,36.88
2023-04-29T11:39:46.528Z,37.27
2023-04-29T11:40:50.398Z,37.27
2023-04-29T11:43:20.774Z,37.08
2023-04-29T11:44:26.209Z,36.86
2023-04-29T11:45:28.821Z,36.71
2023-04-29T11:46:32.380Z,35.05
2023-04-29T11:47:35.347Z,36.06
2023-04-29T11:49:51.707Z,36.04
2023-04-29T11:50:57.636Z,36.35
2023-04-29T11:52:01.004Z,36.24
2023-04-29T11:53:03.814Z,36.05
2023-04-29T11:54:08.324Z,36.05
2023-04-29T11:55:11.310Z,35.92
2023-04-29T11:56:15.081Z,35.71
2023-04-29T11:57:17.797Z,35.58
2023-04-29T11:58:21.148Z,35.41
2023-04-29T11:59:24.727Z,35.67
2023-04-29T12:00:29.261Z,35.61
2023-04-29T12:01:32.200Z,35.58
2023-04-29T12:02:37.285Z,35.58
2023-04-29T12:03:40.335Z,35.18
2023-04-29T12:04:46.809Z,35.36
2023-04-29T12:05:56.890Z,34.81
2023-04-29T12:07:03.173Z,35.05
2023-04-29T12:08:07.514Z,33.35
2023-04-29T12:09:11.245Z,34.62
2023-04-29T12:10:14.648Z,34.71
2023-04-29T12:11:17.334Z,34.54
2023-04-29T12:12:20.716Z,34.42
2023-04-29T12:13:24.820Z,34.33
2023-04-29T12:14:27.674Z,34.33
2023-04-29T12:15:31.329Z,34.55
2023-04-29T12:16:34.182Z,34.55
2023-04-29T12:17:38.373Z,34.41
2023-04-29T12:18:41.229Z,34.52
2023-04-29T12:19:44.392Z,34.21
2023-04-29T12:20:48.700Z,34.22
2023-04-29T12:21:53.304Z,34.29
2023-04-29T12:22:56.355Z,34.11
2023-04-29T12:24:00.858Z,33.91
2023-04-29T12:25:04.329Z,32.74
2023-04-29T12:26:09.689Z,33.06
2023-04-29T12:27:12.502Z,33.04
2023-04-29T12:28:22.349Z,32.99
2023-04-29T12:29:38.662Z,33.02
2023-04-29T12:32:37.667Z,32.89
2023-04-29T12:33:56.000Z,32.34
2023-04-29T12:35:16.641Z,32.52
2023-04-29T12:36:20.655Z,32.77
2023-04-29T12:37:23.843Z,32.50
2023-04-29T12:38:29.432Z,32.60
2023-04-29T12:39:39.993Z,31.76
2023-04-29T12:40:44.335Z,32.33
2023-04-29T12:41:47.033Z,32.49
2023-04-29T12:42:49.676Z,32.68
2023-04-29T12:43:52.532Z,32.46
2023-04-29T12:44:56.015Z,32.65
2023-04-29T12:46:04.367Z,32.68
2023-04-29T12:48:29.726Z,32.77
2023-04-29T12:50:40.404Z,33.06
2023-04-29T12:51:44.582Z,33.12
2023-04-29T12:52:47.155Z,33.11
2023-04-29T12:53:50.601Z,33.12
2023-04-29T12:54:54.682Z,33.23
2023-04-29T12:55:57.571Z,33.45
2023-04-29T12:57:01.642Z,33.68
2023-04-29T12:58:05.642Z,33.79
2023-04-29T13:00:22.424Z,34.18
2023-04-29T13:01:25.670Z,33.97
2023-04-29T13:02:37.917Z,34.14
2023-04-29T13:03:41.110Z,34.18
2023-04-29T13:04:44.201Z,34.36
2023-04-29T13:05:48.905Z,34.13
2023-04-29T13:06:53.697Z,34.10
2023-04-29T13:07:58.001Z,34.03
2023-04-29T13:09:00.819Z,34.11
2023-04-29T13:11:20.714Z,34.11
2023-04-29T13:12:24.483Z,34.09
2023-04-29T13:13:27.988Z,34.25
2023-04-29T13:14:32.373Z,34.34
2023-04-29T13:15:36.351Z,34.21
2023-04-29T13:16:39.248Z,34.44
2023-04-29T13:17:42.369Z,34.63
2023-04-29T13:18:58.982Z,35.02
2023-04-29T13:19:52.409Z,35.15
2023-04-29T13:20:55.579Z,35.27
2023-04-29T13:21:58.247Z,33.64
2023-04-29T13:23:02.220Z,34.53
2023-04-29T13:24:07.102Z,35.03
2023-04-29T13:25:14.436Z,35.25
2023-04-29T13:26:21.153Z,35.49
2023-04-29T13:27:27.402Z,35.67
2023-04-29T13:28:30.162Z,35.89
2023-04-29T13:29:33.827Z,36.12
2023-04-29T13:30:38.561Z,36.30
2023-04-29T13:31:45.804Z,36.57
2023-04-29T13:32:55.212Z,36.68
2023-04-29T13:33:55.230Z,36.91
2023-04-29T13:34:58.465Z,37.12
2023-04-29T13:36:01.453Z,37.35
2023-04-29T13:37:04.071Z,37.63
2023-04-29T13:38:07.590Z,37.75
2023-04-29T13:40:28.027Z,38.35
2023-04-29T13:41:34.577Z,38.40
2023-04-29T13:42:45.213Z,38.54
2023-04-29T13:43:43.628Z,38.64
2023-04-29T13:44:52.242Z,38.74
2023-04-29T13:45:52.831Z,38.76
2023-04-29T13:46:56.195Z,38.78
2023-04-29T13:48:09.547Z,38.88
2023-04-29T13:49:26.704Z,38.94
2023-04-29T13:50:50.620Z,39.04
2023-04-29T13:51:56.261Z,39.01
2023-04-29T13:52:55.682Z,39.11
2023-04-29T13:53:51.234Z,39.17
2023-04-29T14:00:25.069Z,39.38
2023-04-29T14:01:44.083Z,39.41
2023-04-29T14:03:24.844Z,39.45
2023-04-29T14:04:29.463Z,39.50
2023-04-29T14:05:32.862Z,39.47
2023-04-29T14:06:36.940Z,39.56
2023-04-29T14:07:39.837Z,39.51
2023-04-29T14:08:42.405Z,39.55
2023-04-29T14:09:46.767Z,39.66
2023-04-29T14:10:50.566Z,39.65
2023-04-29T14:11:54.364Z,39.70
2023-04-29T14:12:57.089Z,39.77
2023-04-29T14:14:00.367Z,39.87
2023-04-29T14:16:17.496Z,40.06
2023-04-29T14:17:21.091Z,40.09
2023-04-29T14:18:23.967Z,40.11
2023-04-29T14:19:26.977Z,40.10
2023-04-29T14:20:32.453Z,40.13
2023-04-29T14:21:35.611Z,40.25
2023-04-29T14:22:38.593Z,40.32
2023-04-29T14:23:42.157Z,40.35
2023-04-29T14:24:47.813Z,40.40
2023-04-29T14:27:03.302Z,40.57
2023-04-29T14:28:08.272Z,40.57
2023-04-29T14:29:13.829Z,40.60
2023-04-29T14:30:19.048Z,40.66
2023-04-29T14:31:21.918Z,40.72
2023-04-29T14:32:26.122Z,40.72
2023-04-29T14:34:44.410Z,40.87
2023-04-29T14:35:48.213Z,40.86
2023-04-29T14:36:52.064Z,41.11
2023-04-29T14:37:55.597Z,41.11
2023-04-29T14:39:00.401Z,40.87
2023-04-29T14:40:05.200Z,40.85
2023-04-29T14:41:08.171Z,40.92
2023-04-29T14:42:12.914Z,40.92
2023-04-29T14:43:16.091Z,40.85
2023-04-29T14:44:18.765Z,40.80
2023-04-29T14:45:21.823Z,40.82
2023-04-29T14:46:25.341Z,40.83
2023-04-29T14:47:28.955Z,40.83
2023-04-29T14:48:32.609Z,40.80
2023-04-29T14:49:35.230Z,40.83
2023-04-29T14:50:38.198Z,40.83
2023-04-29T14:51:42.837Z,40.87
2023-04-29T14:52:46.338Z,40.85
2023-04-29T14:53:49.352Z,40.86
2023-04-29T14:54:52.954Z,40.86
2023-04-29T14:55:56.813Z,40.85
2023-04-29T14:57:00.945Z,40.83
2023-04-29T14:58:05.124Z,40.85
2023-04-29T14:59:09.215Z,40.83
2023-04-29T15:00:14.651Z,40.85
2023-04-29T15:01:18.595Z,40.84
2023-04-29T15:02:22.934Z,40.87
2023-04-29T15:03:25.934Z,40.87
2023-04-29T15:04:32.274Z,40.90
2023-04-29T15:05:36.057Z,40.93
2023-04-29T15:06:41.435Z,40.95